Terminal Aerodrome Forecast
Issued by NWS Grand Forks, ND

Home | Current Version | Previous Version | Graphics & Text | Print | Product List | Glossary On
Versions: 1 2 3 4 5 6 7 8 9 10 11 12 13 14 15 16 17 18 19 20 21
476
FTUS43 KFGF 070046 AAA
TAFFAR
TAF AMD
KFAR 070046Z 0701/0724 30028G37KT 1SM -SN BLSN OVC025
     FM071500 29020G30KT 2SM BLSN OVC025
     FM071600 29020G30KT 1 1/2SM BLSN OVC025=

USA.gov is the U.S. government's official web portal to all federal, state and local government web resources and services.